KELN/ELN METAR and TAF weather

Enter ICAO airport designator
Station Type Date Time Source
KELN METAR 2020/09/26 22:53 UTC NOAA

KELN 262253Z AUTO 31009KT 10SM BKN055 OVC070 17/06 A3009 RMK AO2 SLP186 T01670056 $


Station Type Date Time Source
KELN Decoded METAR 2020/09/26 22:53 UTC NOAA

ELLENSBURG BOWERS FIELD, WA, United States (KELN) 47-02N 120-32W 519M
Sep 26, 2020 - 06:53 PM EDT / 2020.09.26 2253 UTC
Wind: from the NW (310 degrees) at 10 MPH (9 KT):0
Visibility: 10 mile(s):0
Sky conditions: overcast
Temperature: 62.1 F (16.7 C)
Dew Point: 42.1 F (5.6 C)
Relative Humidity: 47%
Pressure (altimeter): 30.09 in. Hg (1018 hPa)
ob: KELN 262253Z AUTO 31009KT 10SM BKN055 OVC070 17/06 A3009 RMK AO2 SLP186 T01670056
cycle: 23

Station Type Date Time Source
KELN TAF UTC NOAA

Error!

Example: see airport list